Meteo Giornale » Osservazioni meteo Australia » Belmont Perth
ore: 08:30 - Osservazioni Meteo Belmont Perth
Lat. 31° 56' S Lon. 115° 57' E Alt. 20 metri s.l.m.
14 °C
Sereno
Temp. 24 Ore
9 °C
22 °C
Est/Nord-Est
9.3 Km/h
Dew point 9 °C
Umidità 71 %
Visibilità 10 Km
Il sole sorge alle ore 06:33
Il sole tramonta alle ore 17:59
| Data e Ora | Cielo e Fenomeni | T °C | DP °C | Um. % | Pres. hPa | Vis. km | Vento km/h | |
|---|---|---|---|---|---|---|---|---|
| Oggi h: 08:30 | Sereno | 14 | 9 | 71 | 1025 | 10 | E/NE 9.3 | |
| Oggi h: 08:00 | Sereno | 13 | 8 | 71 | 1024 | 10 | E 11.1 | |
| Oggi h: 07:30 | Sereno | 11 | 10 | 93 | 1024 | 10 | N 5.5 | |
| Oggi h: 07:00 | Sereno | 9 | 8 | 93 | 1024 | 10 | N 0 | |
| Oggi h: 06:30 | Sereno | 9 | 8 | 93 | 1024 | 10 | N 0 | |
| Oggi h: 06:00 | Sereno | 10 | 8 | 87 | 1023 | 10 | N 0 | |
| Oggi h: 05:30 | Sereno | 11 | 9 | 87 | 1023 | 10 | E/NE 7.4 | |
| Oggi h: 05:00 | Poco Nuvoloso | 11 | 9 | 87 | 1023 | 10 | N 0 | |
| Oggi h: 04:30 | Coperto | 12 | 10 | 87 | 1023 | 10 | N 0 | |
| Oggi h: 04:00 | Coperto | 12 | 10 | 87 | 1022 | 10 | S/SE 7.4 | |
| Oggi h: 03:30 | Coperto | 13 | 10 | 81 | 1022 | 10 | S 7.4 | |
| Oggi h: 03:00 | Coperto | 13 | 10 | 81 | 1022 | 10 | N 3.7 | |
| Oggi h: 02:30 | Molto Nuvoloso | 13 | 10 | 81 | 1022 | 10 | S 11.1 | |
| Oggi h: 02:00 | Molto Nuvoloso | 12 | 10 | 87 | 1022 | 10 | S 7.4 | |
| Oggi h: 01:30 | Coperto | 13 | 10 | 81 | 1022 | 10 | SE 13 | |
| Oggi h: 01:00 | Coperto | 13 | 10 | 81 | 1022 | 10 | S 20.3 | |
| Oggi h: 00:30 | Coperto | 12 | 9 | 81 | 1022 | 10 | S 22.2 | |
| Oggi h: 00:00 | Molto Nuvoloso | 12 | 9 | 81 | 1022 | 10 | S 33.3 | |
| Ieri h: 23:30 | Molto Nuvoloso | 13 | 11 | 87 | 1022 | 10 | S 38.8 | |
| Ieri h: 23:20 | Coperto | 14 | 12 | 87 | 1022 | 10 | S/SO 29.6 | |
| Ieri h: 23:00 | Molto Nuvoloso | 14 | 13 | 93 | 1022 | 10 | S 24 | |
| Ieri h: 22:30 | Pioviggine | 15 | 13 | 87 | 1022 | 5 | S/SO 24 | |
| Ieri h: 22:13 | Pioviggine | 15 | 14 | 93 | 1022 | 10 | S 22.2 | |
| Ieri h: 22:00 | Pioviggine | 15 | 14 | 93 | 1021 | 5 | S 24 | |
| Ieri h: 21:30 | Pioggia | 16 | 16 | 100 | 1021 | 4 | O 16.7 | |
| Ieri h: 21:00 | Pioggia | 17 | 15 | 88 | 1021 | 3 | O/SO 24 | |
| Ieri h: 20:30 | Pioggia nelle vicinanze | 18 | 15 | 82 | 1021 | 10 | NO 9.3 | |
| Ieri h: 20:00 | Molto Nuvoloso | 18 | 15 | 82 | 1021 | 10 | NO 7.4 | |
| Ieri h: 19:30 | Molto Nuvoloso | 18 | 15 | 82 | 1020 | 10 | O 13 | |
| Ieri h: 19:00 | Pioggia | 18 | 14 | 77 | 1020 | 10 | O 14.8 | |
| Ieri h: 18:30 | Molto Nuvoloso | 17 | 15 | 88 | 1020 | 10 | O 13 | |
| Ieri h: 18:00 | Pioggia | 17 | 15 | 88 | 1020 | 7 | O/NO 22.2 | |
| Ieri h: 17:30 | Molto Nuvoloso | 19 | 13 | 68 | 1019 | 10 | O 22.2 | |
| Ieri h: 17:00 | Molto Nuvoloso | 20 | 12 | 59 | 1019 | 10 | O 24 | |
| Ieri h: 16:30 | Molto Nuvoloso | 20 | 12 | 59 | 1019 | 10 | O 24 | |
| Ieri h: 16:00 | Molto Nuvoloso | 21 | 12 | 56 | 1019 | 10 | O 25.9 | |
| Ieri h: 15:30 | Molto Nuvoloso | 21 | 13 | 60 | 1019 | 10 | O 27.8 | |
| Ieri h: 15:00 | Poco Nuvoloso | 22 | 10 | 46 | 1018 | 10 | O 25.9 | |
| Ieri h: 14:30 | Nuvoloso | 22 | 12 | 53 | 1018 | 10 | O 27.8 | |
| Ieri h: 14:00 | Poco Nuvoloso | 21 | 12 | 56 | 1018 | 10 | O 27.8 | |
| Ieri h: 13:30 | Molto Nuvoloso | 21 | 13 | 60 | 1018 | 10 | O 25.9 | |
| Ieri h: 13:00 | Molto Nuvoloso | 21 | 15 | 68 | 1018 | 10 | O 20.3 | |
| Ieri h: 12:30 | Nuvoloso | 21 | 13 | 60 | 1018 | 10 | O 24 | |
| Ieri h: 12:00 | Nuvoloso | 22 | 14 | 60 | 1018 | 10 | O/SO 24 | |
| Ieri h: 11:30 | Nuvoloso | 21 | 13 | 60 | 1019 | 10 | O/NO 18.5 | |
| Ieri h: 11:00 | Molto Nuvoloso | 20 | 13 | 64 | 1019 | 10 | O/NO 18.5 | |
| Ieri h: 10:30 | Molto Nuvoloso | 20 | 14 | 68 | 1019 | 10 | O 16.7 | |
| Ieri h: 10:00 | Nuvoloso | 20 | 14 | 68 | 1019 | 10 | NO 9.3 | |



